Kinzua, Oregon
Current Conditions -  °F | °C
As of 9:55 AM on Saturday 22 Nov 2014 (Local Time) from KS39 Reporting Station
Broken Clouds Broken Clouds  
Wind Chill: 34°   Ceiling: 4800
Heat Index: 39°   Visibility: 10mi
Dew Point: 37°   Wind: 7mph
Humidity: 93%   Direction: 180°S
Pressure: 29.83"   Gusts: NA
Location:  44.9464°N, 120.192°W
Report Text: KS39 221755Z AUTO 18006KT 10SM BKN048 04/03 A2983 RMK AO2
Loading
Personal Weather Stations






























Interactive Weather Map New forecast layout! Learn more

10-Day Weather Forecast

Advertisements
Track Severe Weather on mobile